Airfield :
LOGIN :

Register | Disclaimer

   EN    FR    IT 

 










Legend :    VFR   Marginal VFR   IFR   Intensive IFR   Very Intensive IFR
Visi :
Ceiling :
>= 8 km
>= 3000ft
5 to 8 km
1000 to 3000 ft
1500m to 5 km
500 to 1000 ft
800 to 1500m
200 to 500 ft
< 800m
< 200 ft
Symbols :   Thunderstorms  Fog  Heavy snow  Heavy precipitations  Wind > 20 kt
SIGMETs :     Misc.  Thunderstorms  Icing  Turbulence  Mountain Waves  Volcanic Ashes







- Airport Elevation : 461 ft
- IATA code : WIE


ETOU - Wiesbaden Army

CURRENT METAR :
  • 281258Z AUTO 25012KT 9999 FEW045 SCT065 21/12 A2996 RMK AO2 SLP144 T02120124

EXPIRED METARs :
  • 281158Z AUTO 25012KT 9999 SCT043 BKN060 BKN075 21/12 A2995 RMK AO2 SLP141 70006 T02050119 10210 20158 53002
  • 281058Z AUTO 26013G17KT 9999 FEW043 SCT050 OVC070 20/12 A2995 RMK AO2 SLP140 T02030122
  • 280958Z AUTO 28012KT 9999 BKN045 OVC060 20/12 A2995 RMK AO2 SLP140 T01950117

TAF AMD TAF ETOU
Valid from the 28 at 10:00 until the 29 at 09:00 UTC


281033Z 2810/2909 26012G18KT 9999 SCT030 QNH2991INS
BECMG 2814/2815 26009KT 9999 SCT040 QNH2996INS
BECMG 2823/2824 21006KT 9000 -SHRA SCT030 BKN050 QNH3000INS TX21/2816Z TN14/2903Z
No reported NOTAMs for that airfield.



MET'MAP, your aeronautical weather chart ! - Copyright ORBIFLY December 2007 - Disclaimer

ORBIFLY MET'MAP TEAM :

Programming & Development : Alexandra Zaïnal
Concept & Development : Baudouin d'Aumeries
Co-Development & Prog : Marc-Olivier Méhu
Technical & hardware support : Manuel Goepfert

Contact : metmap@orbifly.com




SOURCES & CREDITS :

   NOAA